createdAt,value
2019-04-26T00:01:16.432Z,14.80
2019-04-26T00:03:48.304Z,14.07
2019-04-26T00:06:18.757Z,13.90
2019-04-26T00:08:58.901Z,13.97
2019-04-26T00:11:46.414Z,13.87
2019-04-26T00:14:30.869Z,14.73
2019-04-26T00:17:09.228Z,13.80
2019-04-26T00:19:40.231Z,13.77
2019-04-26T00:22:10.980Z,13.50
2019-04-26T00:24:42.547Z,12.97
2019-04-26T00:27:12.783Z,13.33
2019-04-26T00:29:42.959Z,13.07
2019-04-26T00:32:13.786Z,12.90
2019-04-26T00:34:43.991Z,12.97
2019-04-26T00:37:14.179Z,13.43
2019-04-26T00:39:44.307Z,12.57
2019-04-26T00:42:14.724Z,12.70
2019-04-26T00:44:45.197Z,12.63
2019-04-26T00:47:16.969Z,14.30
2019-04-26T00:49:47.687Z,12.37
2019-04-26T00:52:18.198Z,12.87
2019-04-26T00:54:48.747Z,12.33
2019-04-26T00:57:20.314Z,12.77
2019-04-26T00:59:51.272Z,12.63
2019-04-26T01:02:39.076Z,12.43
2019-04-26T01:05:09.203Z,12.43
2019-04-26T01:07:41.604Z,12.83
2019-04-26T01:10:11.829Z,12.70
2019-04-26T01:12:41.946Z,13.43
2019-04-26T01:15:12.214Z,12.40
2019-04-26T01:17:42.406Z,13.10
2019-04-26T01:20:13.554Z,12.80
2019-04-26T01:22:47.597Z,12.67
2019-04-26T01:25:43.062Z,13.07
2019-04-26T01:28:18.518Z,12.60
2019-04-26T01:30:50.612Z,12.90
2019-04-26T01:33:21.874Z,11.40
2019-04-26T01:35:52.766Z,12.80
2019-04-26T01:38:24.370Z,12.10
2019-04-26T01:40:57.287Z,12.53
2019-04-26T01:43:47.128Z,12.27
2019-04-26T01:46:23.388Z,12.70
2019-04-26T01:49:00.404Z,12.30
2019-04-26T01:51:59.566Z,12.00
2019-04-26T01:54:34.402Z,12.10
2019-04-26T01:57:06.454Z,12.40
2019-04-26T01:59:40.514Z,12.13
2019-04-26T02:02:30.450Z,11.93
2019-04-26T02:05:03.112Z,12.57
2019-04-26T02:07:39.923Z,12.97
2019-04-26T02:10:24.036Z,12.03
2019-04-26T02:12:55.841Z,12.40
2019-04-26T02:15:29.286Z,12.50
2019-04-26T02:18:01.286Z,12.67
2019-04-26T02:21:26.337Z,11.97
2019-04-26T02:24:04.767Z,11.70
2019-04-26T02:26:36.248Z,12.13
2019-04-26T02:29:10.839Z,11.30
2019-04-26T02:31:44.225Z,12.23
2019-04-26T02:34:15.937Z,11.60
2019-04-26T02:36:57.050Z,11.83
2019-04-26T02:39:23.535Z,12.20
2019-04-26T02:41:56.829Z,12.10
2019-04-26T02:44:39.951Z,11.87
2019-04-26T02:47:50.829Z,11.63
2019-04-26T02:50:33.254Z,11.80
2019-04-26T02:53:32.938Z,12.33
2019-04-26T02:56:30.294Z,11.37
2019-04-26T02:59:26.230Z,11.93
2019-04-26T03:01:59.270Z,11.53
2019-04-26T03:04:31.035Z,12.77
2019-04-26T03:07:07.859Z,13.20
2019-04-26T03:09:40.876Z,13.10
2019-04-26T03:12:15.318Z,12.73
2019-04-26T03:15:13.140Z,13.47
2019-04-26T03:17:50.898Z,12.23
2019-04-26T03:20:25.246Z,11.77
2019-04-26T03:23:56.312Z,13.57
2019-04-26T03:26:37.436Z,11.80
2019-04-26T03:29:43.783Z,13.40
2019-04-26T03:32:51.632Z,12.97
2019-04-26T03:35:41.272Z,11.97
2019-04-26T03:38:26.866Z,12.43
2019-04-26T03:41:44.301Z,12.80
2019-04-26T03:44:31.095Z,11.77
2019-04-26T03:47:04.896Z,12.40
2019-04-26T03:50:19.144Z,11.93
2019-04-26T03:53:14.325Z,12.67
2019-04-26T03:56:10.158Z,12.70
2019-04-26T03:59:18.287Z,12.73
2019-04-26T04:02:00.190Z,12.23
2019-04-26T04:04:44.561Z,12.13
2019-04-26T04:07:17.646Z,12.60
2019-04-26T04:09:52.301Z,13.10
2019-04-26T04:12:48.212Z,13.27
2019-04-26T04:15:26.814Z,13.80
2019-04-26T04:18:03.374Z,13.07
2019-04-26T04:21:15.832Z,12.97
2019-04-26T04:23:58.828Z,14.23
2019-04-26T04:26:44.395Z,13.37
2019-04-26T04:29:55.261Z,13.60
2019-04-26T04:33:16.552Z,14.40
2019-04-26T04:35:54.824Z,13.70
2019-04-26T04:39:12.235Z,14.33
2019-04-26T04:42:01.815Z,13.73
2019-04-26T04:45:35.361Z,14.30
2019-04-26T04:48:37.018Z,13.63
2019-04-26T04:51:32.429Z,13.70
2019-04-26T04:54:18.442Z,13.57
2019-04-26T04:57:09.528Z,13.13
2019-04-26T05:00:06.782Z,13.43
2019-04-26T05:03:27.562Z,14.13
2019-04-26T05:06:19.041Z,15.03
2019-04-26T05:09:14.360Z,14.17
2019-04-26T05:12:10.662Z,14.10
2019-04-26T05:15:02.848Z,13.80
2019-04-26T05:17:55.842Z,14.10
2019-04-26T05:20:33.330Z,14.23
2019-04-26T05:23:43.225Z,13.17
2019-04-26T05:26:56.829Z,13.90
2019-04-26T05:30:36.853Z,13.90
2019-04-26T05:33:44.359Z,13.20
2019-04-26T05:36:46.320Z,13.40
2019-04-26T05:39:49.140Z,13.70
2019-04-26T05:43:27.945Z,13.40
2019-04-26T05:46:27.194Z,12.53
2019-04-26T05:49:46.587Z,13.63
2019-04-26T05:53:18.618Z,14.73
2019-04-26T05:56:29.773Z,13.63
2019-04-26T05:59:23.272Z,13.77
2019-04-26T06:02:51.369Z,14.27
2019-04-26T06:05:56.879Z,14.13
2019-04-26T06:09:32.041Z,14.17
2019-04-26T06:12:33.856Z,13.53
2019-04-26T06:15:30.938Z,13.70
2019-04-26T06:18:43.446Z,13.43
2019-04-26T06:21:30.148Z,12.70
2019-04-26T06:24:20.791Z,13.93
2019-04-26T06:27:25.990Z,12.60
2019-04-26T06:30:10.979Z,13.40
2019-04-26T06:33:07.208Z,13.53
2019-04-26T06:35:41.733Z,13.33
2019-04-26T06:39:11.989Z,12.57
2019-04-26T06:42:15.715Z,13.87
2019-04-26T06:45:26.438Z,12.57
2019-04-26T06:48:06.043Z,13.27
2019-04-26T06:50:42.739Z,12.60
2019-04-26T06:53:28.543Z,12.57
2019-04-26T06:56:33.874Z,13.23
2019-04-26T06:59:17.411Z,12.87
2019-04-26T07:01:59.058Z,12.80
2019-04-26T07:04:59.225Z,13.47
2019-04-26T07:08:10.805Z,13.03
2019-04-26T07:11:08.245Z,12.50
2019-04-26T07:14:32.962Z,12.37
2019-04-26T07:17:13.248Z,13.13
2019-04-26T07:20:40.143Z,12.80
2019-04-26T07:23:57.279Z,13.10
2019-04-26T07:26:55.300Z,12.63
2019-04-26T07:30:02.310Z,12.30
2019-04-26T07:33:08.343Z,12.57
2019-04-26T07:35:58.950Z,12.30
2019-04-26T07:39:19.673Z,12.70
2019-04-26T07:42:24.698Z,12.63
2019-04-26T07:45:49.798Z,12.47
2019-04-26T07:48:49.494Z,11.17
2019-04-26T07:51:45.542Z,11.93
2019-04-26T07:54:45.998Z,10.90
2019-04-26T07:58:05.278Z,12.53
2019-04-26T08:00:45.051Z,11.70
2019-04-26T08:03:43.547Z,10.97
2019-04-26T08:06:26.042Z,11.13
2019-04-26T08:09:04.780Z,12.07
2019-04-26T08:11:45.010Z,11.33
2019-04-26T08:14:39.686Z,10.20
2019-04-26T08:18:01.577Z,11.43
2019-04-26T08:20:48.132Z,10.37
2019-04-26T08:23:39.183Z,10.53
2019-04-26T08:25:58.726Z,11.63
2019-04-26T08:28:32.434Z,10.53
2019-04-26T08:31:05.964Z,10.53
2019-04-26T08:33:48.636Z,10.40
2019-04-26T08:36:16.219Z,10.13
2019-04-26T08:38:48.821Z,9.67
2019-04-26T08:41:22.685Z,10.40
2019-04-26T08:44:08.625Z,9.93
2019-04-26T08:47:23.770Z,9.73
2019-04-26T08:49:56.025Z,9.20
2019-04-26T08:52:30.312Z,9.00
2019-04-26T08:55:05.013Z,9.67
2019-04-26T08:57:38.298Z,9.03
2019-04-26T09:00:19.258Z,9.40
2019-04-26T09:03:23.593Z,8.93
2019-04-26T09:06:07.940Z,9.07
2019-04-26T09:08:43.461Z,8.43
2019-04-26T09:11:25.403Z,9.10
2019-04-26T09:13:51.132Z,8.57
2019-04-26T09:16:21.786Z,9.20
2019-04-26T09:18:54.312Z,9.03
2019-04-26T09:21:53.341Z,8.90
2019-04-26T09:24:45.376Z,9.20
2019-04-26T09:27:34.917Z,9.23
2019-04-26T09:30:34.160Z,8.23
2019-04-26T09:33:27.575Z,9.47
2019-04-26T09:35:58.454Z,8.70
2019-04-26T09:38:28.605Z,8.17
2019-04-26T09:41:00.564Z,7.77
2019-04-26T09:43:58.885Z,8.30
2019-04-26T09:46:55.282Z,8.67
2019-04-26T09:49:42.306Z,7.73
2019-04-26T09:52:17.910Z,8.00
2019-04-26T09:54:48.078Z,8.00
2019-04-26T09:57:18.267Z,8.00
2019-04-26T09:59:48.462Z,7.73
2019-04-26T10:02:20.444Z,7.70
2019-04-26T10:04:50.603Z,7.70
2019-04-26T10:07:20.792Z,8.80
2019-04-26T10:09:51.809Z,8.20
2019-04-26T10:12:32.312Z,8.63
2019-04-26T10:15:22.472Z,8.50
2019-04-26T10:17:53.437Z,8.27
2019-04-26T10:20:23.799Z,8.70
2019-04-26T10:22:53.914Z,7.93
2019-04-26T10:25:24.084Z,8.10
2019-04-26T10:27:54.225Z,8.00
2019-04-26T10:30:24.371Z,8.80
2019-04-26T10:32:54.506Z,8.10
2019-04-26T10:35:24.648Z,8.03
2019-04-26T10:37:54.767Z,8.30
2019-04-26T10:40:34.987Z,8.10
2019-04-26T10:42:56.780Z,7.97
2019-04-26T10:45:27.872Z,8.37
2019-04-26T10:47:58.037Z,7.80
2019-04-26T10:50:28.894Z,8.30
2019-04-26T10:53:18.100Z,8.33
2019-04-26T10:56:09.944Z,8.37
2019-04-26T10:58:44.438Z,8.73
2019-04-26T11:01:15.679Z,8.83
2019-04-26T11:03:45.876Z,8.23
2019-04-26T11:06:16.108Z,8.90
2019-04-26T11:08:46.270Z,9.13
2019-04-26T11:11:16.456Z,8.43
2019-04-26T11:13:46.607Z,7.80
2019-04-26T11:16:16.732Z,8.33
2019-04-26T11:18:46.915Z,8.60
2019-04-26T11:21:20.805Z,9.23
2019-04-26T11:23:50.054Z,9.60
2019-04-26T11:26:20.310Z,8.97
2019-04-26T11:28:51.296Z,8.13
2019-04-26T11:31:23.359Z,8.33
2019-04-26T11:34:04.739Z,8.77
2019-04-26T11:36:26.931Z,9.27
2019-04-26T11:38:57.067Z,9.30
2019-04-26T11:41:27.340Z,8.53
2019-04-26T11:43:57.458Z,8.40
2019-04-26T11:46:30.061Z,8.90
2019-04-26T11:49:02.957Z,9.00
2019-04-26T11:51:31.227Z,8.90
2019-04-26T11:54:01.325Z,9.53
2019-04-26T18:45:09.844Z,8.00
2019-04-26T18:47:43.897Z,7.90
2019-04-26T18:50:13.851Z,8.00
2019-04-26T18:53:07.151Z,7.93
2019-04-26T18:55:38.259Z,8.00
2019-04-26T18:58:09.461Z,7.70
2019-04-26T19:00:40.923Z,7.80
2019-04-26T19:03:13.459Z,6.97
2019-04-26T19:05:43.160Z,7.63
2019-04-26T19:08:14.942Z,7.63
2019-04-26T19:10:58.061Z,8.23
2019-04-26T19:13:46.160Z,8.30
2019-04-26T19:16:33.962Z,7.63
2019-04-26T19:19:22.489Z,7.67
2019-04-26T19:21:54.672Z,8.00
2019-04-26T19:24:24.896Z,8.37
2019-04-26T19:26:55.016Z,8.10
2019-04-26T19:29:32.839Z,7.90
2019-04-26T19:32:01.518Z,8.07
2019-04-26T19:34:31.227Z,8.83
2019-04-26T19:37:03.354Z,8.77
2019-04-26T19:39:35.661Z,8.73
2019-04-26T19:42:06.249Z,8.30
2019-04-26T19:44:36.684Z,8.47
2019-04-26T19:47:44.199Z,8.77
2019-04-26T19:50:50.543Z,8.33
2019-04-26T19:53:43.078Z,8.67
2019-04-26T19:56:17.442Z,8.43
2019-04-26T19:58:50.665Z,8.57
2019-04-26T20:01:24.886Z,8.50
2019-04-26T20:03:55.262Z,8.73
2019-04-26T20:06:26.802Z,9.23
2019-04-26T20:08:58.007Z,8.80
2019-04-26T20:11:28.406Z,8.60
2019-04-26T20:13:58.619Z,9.83
2019-04-26T20:16:28.888Z,9.00
2019-04-26T20:18:59.194Z,9.10
2019-04-26T20:21:32.098Z,9.50
2019-04-26T20:24:01.349Z,8.97
2019-04-26T20:26:31.565Z,9.10
2019-04-26T20:29:01.701Z,9.17
2019-04-26T20:31:44.898Z,8.40
2019-04-26T20:34:14.423Z,8.50
2019-04-26T20:36:47.609Z,8.33
2019-04-26T20:39:16.519Z,8.57
2019-04-26T20:41:46.747Z,9.20
2019-04-26T20:44:16.943Z,8.97
2019-04-26T20:46:47.116Z,8.53
2019-04-26T20:49:19.305Z,8.33
2019-04-26T20:51:49.164Z,8.27
2019-04-26T20:54:19.375Z,8.67
2019-04-26T20:56:52.627Z,9.07
2019-04-26T20:59:23.656Z,8.57
2019-04-26T21:02:06.983Z,8.50
2019-04-26T21:04:36.698Z,9.20
2019-04-26T21:06:59.360Z,9.53
2019-04-26T21:09:29.648Z,9.63
2019-04-26T21:11:59.887Z,9.87
2019-04-26T21:14:31.606Z,9.40
2019-04-26T21:17:02.024Z,8.50
2019-04-26T21:19:32.818Z,8.63
2019-04-26T21:22:04.119Z,9.00
2019-04-26T21:24:36.947Z,8.80
2019-04-26T21:27:30.144Z,9.30
2019-04-26T21:30:18.998Z,9.60
2019-04-26T21:33:17.486Z,9.60
2019-04-26T21:36:02.036Z,9.00
2019-04-26T21:38:40.971Z,8.43
2019-04-26T21:41:14.417Z,10.33
2019-04-26T21:43:45.622Z,9.30
2019-04-26T21:46:19.221Z,10.00
2019-04-26T21:48:47.644Z,9.33
2019-04-26T21:51:17.777Z,9.73
2019-04-26T21:53:47.993Z,8.90
2019-04-26T21:56:18.131Z,9.67
2019-04-26T21:58:48.276Z,9.93
2019-04-26T22:01:21.341Z,9.60
2019-04-26T22:03:56.986Z,9.20
2019-04-26T22:06:27.500Z,10.50
2019-04-26T22:09:02.763Z,8.87
2019-04-26T22:11:34.073Z,9.40
2019-04-26T22:14:13.186Z,9.70
2019-04-26T22:16:49.724Z,8.97
2019-04-26T22:19:37.781Z,9.77
2019-04-26T22:22:15.382Z,9.77
2019-04-26T22:24:46.752Z,10.20
2019-04-26T22:27:17.492Z,10.37
2019-04-26T22:29:51.796Z,9.60
2019-04-26T22:32:20.508Z,9.20
2019-04-26T22:34:50.639Z,9.23
2019-04-26T22:37:29.560Z,9.80
2019-04-26T22:39:54.236Z,8.83
2019-04-26T22:42:25.093Z,8.83
2019-04-26T22:45:04.948Z,9.40
2019-04-26T22:47:41.066Z,9.50
2019-04-26T22:50:07.598Z,9.43
2019-04-26T22:52:37.717Z,9.20
2019-04-26T22:55:08.336Z,9.13
2019-04-26T22:57:38.430Z,9.03
2019-04-26T23:00:08.855Z,9.80
2019-04-26T23:02:40.598Z,9.47
2019-04-26T23:05:10.719Z,9.43
2019-04-26T23:07:40.827Z,9.30
2019-04-26T23:10:11.243Z,9.23
2019-04-26T23:13:04.482Z,9.10
2019-04-26T23:15:50.629Z,8.73
2019-04-26T23:18:42.995Z,9.17
2019-04-26T23:21:16.070Z,9.47
2019-04-26T23:23:46.188Z,10.13
2019-04-26T23:26:16.330Z,10.40
2019-04-26T23:28:46.458Z,9.50
2019-04-26T23:31:16.577Z,9.47
2019-04-26T23:33:46.700Z,9.87
2019-04-26T23:36:18.366Z,10.37
2019-04-26T23:38:48.946Z,9.57
2019-04-26T23:41:19.104Z,9.10
2019-04-26T23:43:49.302Z,9.97
2019-04-26T23:46:22.821Z,9.50
2019-04-26T23:48:51.326Z,11.30
2019-04-26T23:51:21.448Z,9.67
2019-04-26T23:53:56.355Z,9.73
2019-04-26T23:56:25.317Z,9.80
2019-04-26T23:58:55.708Z,11.07
